createdAt,value
2019-03-06T00:00:50.617Z,5.60
2019-03-06T00:03:19.210Z,5.50
2019-03-06T00:05:47.858Z,5.60
2019-03-06T00:08:16.505Z,5.50
2019-03-06T00:10:45.110Z,5.50
2019-03-06T00:13:13.750Z,5.50
2019-03-06T00:15:42.529Z,5.50
2019-03-06T00:18:11.103Z,5.50
2019-03-06T00:20:39.658Z,5.60
2019-03-06T00:23:08.199Z,5.60
2019-03-06T00:25:36.774Z,5.60
2019-03-06T00:28:05.464Z,5.60
2019-03-06T00:30:34.102Z,5.60
2019-03-06T00:33:02.642Z,5.60
2019-03-06T00:35:41.649Z,5.60
2019-03-06T00:38:10.193Z,5.60
2019-03-06T00:40:40.583Z,5.60
2019-03-06T00:43:09.156Z,5.60
2019-03-06T00:45:37.730Z,5.60
2019-03-06T00:48:06.338Z,5.60
2019-03-06T00:50:34.919Z,5.60
2019-03-06T00:53:03.582Z,5.60
2019-03-06T00:55:32.216Z,5.60
2019-03-06T00:58:00.762Z,5.70
2019-03-06T01:00:29.401Z,5.70
2019-03-06T01:02:57.954Z,5.70
2019-03-06T01:05:26.894Z,5.60
2019-03-06T01:07:55.440Z,5.70
2019-03-06T01:10:24.142Z,5.60
2019-03-06T01:12:52.761Z,5.60
2019-03-06T01:15:21.734Z,5.60
2019-03-06T01:17:50.547Z,5.60
2019-03-06T01:20:19.269Z,5.50
2019-03-06T01:22:47.819Z,5.50
2019-03-06T01:25:19.948Z,5.40
2019-03-06T01:27:48.494Z,5.40
2019-03-06T01:30:21.107Z,5.30
2019-03-06T01:32:51.359Z,5.30
2019-03-06T01:35:36.094Z,5.20
2019-03-06T01:38:09.610Z,5.10
2019-03-06T01:40:55.729Z,5.10
2019-03-06T01:43:26.077Z,5.00
2019-03-06T01:45:54.715Z,5.00
2019-03-06T01:48:23.275Z,5.00
2019-03-06T01:50:51.918Z,5.00
2019-03-06T01:53:20.462Z,4.90
2019-03-06T01:55:49.107Z,4.90
2019-03-06T01:58:17.659Z,4.80
2019-03-06T02:00:46.239Z,4.80
2019-03-06T02:03:15.222Z,4.70
2019-03-06T02:05:43.862Z,4.70
2019-03-06T02:08:13.243Z,4.70
2019-03-06T02:10:41.854Z,4.60
2019-03-06T02:13:10.637Z,4.60
2019-03-06T02:15:39.140Z,4.50
2019-03-06T02:18:07.775Z,4.50
2019-03-06T02:20:36.314Z,4.40
2019-03-06T02:23:05.022Z,4.30
2019-03-06T02:25:33.567Z,4.20
2019-03-06T02:28:02.142Z,4.20
2019-03-06T02:30:30.761Z,4.20
2019-03-06T02:32:59.422Z,4.10
2019-03-06T02:35:27.970Z,4.10
2019-03-06T02:37:56.745Z,4.20
2019-03-06T02:40:25.286Z,4.20
2019-03-06T02:42:53.866Z,4.20
2019-03-06T02:45:22.419Z,4.20
2019-03-06T02:47:50.979Z,4.10
2019-03-06T02:50:19.869Z,4.10
2019-03-06T02:52:48.511Z,4.10
2019-03-06T02:55:18.039Z,4.00
2019-03-06T02:57:51.460Z,4.00
2019-03-06T03:00:34.495Z,4.00
2019-03-06T03:03:11.384Z,3.90
2019-03-06T03:05:41.589Z,3.90
2019-03-06T03:08:10.156Z,3.90
2019-03-06T03:10:38.840Z,3.90
2019-03-06T03:13:07.423Z,3.90
2019-03-06T03:15:35.976Z,3.80
2019-03-06T03:18:04.608Z,3.80
2019-03-06T03:20:33.169Z,3.80
2019-03-06T03:23:01.771Z,3.80
2019-03-06T03:25:30.560Z,3.70
2019-03-06T03:27:59.136Z,3.70
2019-03-06T03:30:27.750Z,3.60
2019-03-06T03:32:56.341Z,3.50
2019-03-06T03:35:24.884Z,3.60
2019-03-06T03:37:53.459Z,3.60
2019-03-06T03:40:23.027Z,3.60
2019-03-06T03:42:51.747Z,3.60
2019-03-06T03:45:20.290Z,3.60
2019-03-06T03:47:48.920Z,3.50
2019-03-06T03:50:17.575Z,3.50
2019-03-06T03:52:46.260Z,3.50
2019-03-06T03:55:18.330Z,3.50
2019-03-06T03:57:46.951Z,3.50
2019-03-06T04:00:20.436Z,3.40
2019-03-06T04:02:48.986Z,3.40
2019-03-06T04:05:17.687Z,3.40
2019-03-06T04:07:46.244Z,3.40
2019-03-06T04:10:15.539Z,3.50
2019-03-06T04:12:44.102Z,3.40
2019-03-06T04:15:17.715Z,3.40
2019-03-06T04:17:46.327Z,3.40
2019-03-06T04:20:15.933Z,3.40
2019-03-06T04:22:44.423Z,3.40
2019-03-06T04:25:13.076Z,3.40
2019-03-06T04:27:41.744Z,3.40
2019-03-06T04:30:12.741Z,3.30
2019-03-06T04:32:41.355Z,3.30
2019-03-06T04:35:10.287Z,3.20
2019-03-06T04:37:38.868Z,3.20
2019-03-06T04:40:09.870Z,3.10
2019-03-06T04:42:38.428Z,3.20
2019-03-06T04:45:09.730Z,3.20
2019-03-06T04:47:38.285Z,3.20
2019-03-06T04:50:09.683Z,3.10
2019-03-06T04:52:38.239Z,3.10
2019-03-06T04:55:08.167Z,3.10
2019-03-06T04:57:36.770Z,3.00
2019-03-06T05:00:15.627Z,3.00
2019-03-06T05:02:44.247Z,3.00
2019-03-06T05:05:12.965Z,3.00
2019-03-06T05:07:41.527Z,2.90
2019-03-06T05:10:11.455Z,2.90
2019-03-06T05:12:40.022Z,2.90
2019-03-06T05:15:11.251Z,2.90
2019-03-06T05:17:41.469Z,2.80
2019-03-06T05:20:10.396Z,2.80
2019-03-06T05:22:38.981Z,2.80
2019-03-06T05:25:07.698Z,2.70
2019-03-06T05:27:36.269Z,2.60
2019-03-06T05:30:07.647Z,2.60
2019-03-06T05:32:36.886Z,2.60
2019-03-06T05:35:20.154Z,2.60
2019-03-06T05:38:03.952Z,2.50
2019-03-06T05:40:32.504Z,2.50
2019-03-06T05:43:01.178Z,2.60
2019-03-06T05:45:29.847Z,2.60
2019-03-06T05:47:58.422Z,2.70
2019-03-06T05:50:26.990Z,2.80
2019-03-06T05:52:55.633Z,2.90
2019-03-06T05:55:24.282Z,2.90
2019-03-06T05:57:52.894Z,3.00
2019-03-06T06:00:23.158Z,2.90
2019-03-06T06:02:51.753Z,2.80
2019-03-06T06:05:20.356Z,2.80
2019-03-06T06:07:48.954Z,2.90
2019-03-06T06:10:17.594Z,3.00
2019-03-06T06:12:46.333Z,3.10
2019-03-06T06:15:15.753Z,3.10
2019-03-06T06:17:44.403Z,3.20
2019-03-06T06:20:14.617Z,3.20
2019-03-06T06:22:45.023Z,3.20
2019-03-06T06:25:13.931Z,3.30
2019-03-06T06:27:42.506Z,3.40
2019-03-06T06:30:12.686Z,3.40
2019-03-06T06:32:41.268Z,3.40
2019-03-06T06:35:11.758Z,3.50
2019-03-06T06:37:40.615Z,3.50
2019-03-06T06:40:11.816Z,3.60
2019-03-06T06:42:40.390Z,3.70
2019-03-06T06:45:11.341Z,3.80
2019-03-06T06:47:59.362Z,3.90
2019-03-06T06:50:28.370Z,4.00
2019-03-06T06:53:16.138Z,4.10
2019-03-06T06:55:50.355Z,4.20
2019-03-06T06:58:31.271Z,4.30
2019-03-06T07:01:14.671Z,4.40
2019-03-06T07:04:26.626Z,4.60
2019-03-06T07:07:02.816Z,4.80
2019-03-06T07:09:50.659Z,4.90
2019-03-06T07:12:23.814Z,5.00
2019-03-06T07:15:02.069Z,5.10
2019-03-06T07:17:35.627Z,5.20
2019-03-06T07:20:09.686Z,5.30
2019-03-06T07:22:40.098Z,5.40
2019-03-06T07:25:22.562Z,5.40
2019-03-06T07:27:58.571Z,5.50
2019-03-06T07:30:31.245Z,5.60
2019-03-06T07:33:07.491Z,5.70
2019-03-06T07:35:56.502Z,5.60
2019-03-06T07:38:25.289Z,5.60
2019-03-06T07:41:11.765Z,5.80
2019-03-06T07:43:53.595Z,5.80
2019-03-06T07:46:26.565Z,6.00
2019-03-06T07:49:11.687Z,6.10
2019-03-06T07:51:44.590Z,6.20
2019-03-06T07:54:29.632Z,6.20
2019-03-06T07:57:05.422Z,6.20
2019-03-06T07:59:33.998Z,6.20
2019-03-06T08:02:32.305Z,6.20
2019-03-06T08:05:00.883Z,6.30
2019-03-06T08:07:29.429Z,6.50
2019-03-06T08:09:58.016Z,6.70
2019-03-06T08:12:33.984Z,6.80
2019-03-06T08:15:20.465Z,6.90
2019-03-06T08:18:06.588Z,7.10
2019-03-06T08:20:52.967Z,7.30
2019-03-06T08:23:29.185Z,7.40
2019-03-06T08:25:57.832Z,7.50
2019-03-06T08:28:26.660Z,7.60
2019-03-06T08:30:56.855Z,7.70
2019-03-06T08:33:25.668Z,7.90
2019-03-06T08:35:54.307Z,8.00
2019-03-06T08:38:22.841Z,8.20
2019-03-06T08:40:51.418Z,8.40
2019-03-06T08:43:19.962Z,8.60
2019-03-06T08:45:55.958Z,8.90
2019-03-06T08:48:28.822Z,9.20
2019-03-06T08:51:15.373Z,9.40
2019-03-06T08:54:01.884Z,9.70
2019-03-06T08:56:48.119Z,9.90
2019-03-06T08:59:30.173Z,10.10
2019-03-06T09:02:01.242Z,10.20
2019-03-06T09:04:37.769Z,10.30
2019-03-06T09:07:08.043Z,10.60
2019-03-06T09:09:38.234Z,10.80
2019-03-06T09:12:11.518Z,11.00
2019-03-06T09:14:50.550Z,11.00
2019-03-06T09:17:20.959Z,11.00
2019-03-06T09:19:51.151Z,11.00
2019-03-06T09:22:21.361Z,11.40
2019-03-06T09:24:51.537Z,11.60
2019-03-06T09:27:24.410Z,11.50
2019-03-06T09:29:57.326Z,12.00
2019-03-06T09:32:27.542Z,12.60
2019-03-06T09:34:57.719Z,13.10
2019-03-06T09:37:33.901Z,13.30
2019-03-06T09:40:06.126Z,14.00
2019-03-06T09:42:47.578Z,13.70
2019-03-06T09:45:17.907Z,13.90
2019-03-06T09:47:48.314Z,14.60
2019-03-06T09:50:21.220Z,14.60
2019-03-06T09:53:07.178Z,14.70
2019-03-06T09:55:40.153Z,15.00
2019-03-06T09:58:10.358Z,14.60
2019-03-06T10:00:56.677Z,14.80
2019-03-06T10:03:32.872Z,15.10
2019-03-06T10:06:03.087Z,15.20
2019-03-06T10:08:45.329Z,14.90
2019-03-06T10:11:21.273Z,14.70
2019-03-06T10:13:54.002Z,14.40
2019-03-06T10:16:24.210Z,14.40
2019-03-06T10:18:54.396Z,13.80
2019-03-06T10:21:23.006Z,13.40
2019-03-06T10:23:51.776Z,13.00
2019-03-06T10:26:20.614Z,13.00
2019-03-06T10:28:49.200Z,12.80
2019-03-06T10:31:18.056Z,13.00
2019-03-06T10:33:46.630Z,12.90
2019-03-06T10:36:15.246Z,13.20
2019-03-06T10:38:43.902Z,13.70
2019-03-06T10:41:12.651Z,14.70
2019-03-06T10:43:48.878Z,16.10
2019-03-06T10:46:11.402Z,16.90
2019-03-06T10:48:39.978Z,17.10
2019-03-06T10:51:08.838Z,15.80
2019-03-06T10:53:41.412Z,15.70
2019-03-06T10:56:07.842Z,16.70
2019-03-06T10:58:36.481Z,17.70
2019-03-06T11:01:06.167Z,18.30
2019-03-06T11:03:42.391Z,17.30
2019-03-06T11:06:11.899Z,16.40
2019-03-06T11:08:40.617Z,15.80
2019-03-06T11:11:09.497Z,15.50
2019-03-06T11:13:38.064Z,15.10
2019-03-06T11:16:07.953Z,14.60
2019-03-06T11:18:36.667Z,14.50
2019-03-06T11:21:05.345Z,14.40
2019-03-06T11:23:34.062Z,14.20
2019-03-06T11:26:02.967Z,13.90
2019-03-06T11:28:31.626Z,14.00
2019-03-06T11:31:00.410Z,14.30
2019-03-06T11:33:29.121Z,14.10
2019-03-06T11:35:59.197Z,14.10
2019-03-06T11:38:28.415Z,14.60
2019-03-06T11:40:57.818Z,15.20
2019-03-06T11:43:26.537Z,15.40
2019-03-06T11:45:55.147Z,15.70
2019-03-06T11:48:23.989Z,15.50
2019-03-06T11:50:52.534Z,15.40
2019-03-06T11:53:21.252Z,15.20
2019-03-06T11:55:49.970Z,15.00
2019-03-06T11:58:19.179Z,15.00
2019-03-06T12:00:47.794Z,14.80
2019-03-06T12:03:20.893Z,14.90
2019-03-06T12:05:49.984Z,15.20
2019-03-06T12:08:19.596Z,15.60
2019-03-06T12:10:48.586Z,16.40
2019-03-06T12:13:18.094Z,17.30
2019-03-06T12:15:50.883Z,17.60
2019-03-06T12:18:21.984Z,17.30
2019-03-06T12:20:50.682Z,16.70
2019-03-06T12:23:19.326Z,16.50
2019-03-06T12:25:48.128Z,17.00
2019-03-06T12:28:17.380Z,17.20
2019-03-06T12:30:46.274Z,17.20
2019-03-06T12:33:20.293Z,17.30
2019-03-06T12:35:49.009Z,17.50
2019-03-06T12:38:17.686Z,16.70
2019-03-06T12:40:46.305Z,16.70
2019-03-06T12:43:14.887Z,16.60
2019-03-06T12:45:46.530Z,16.60
2019-03-06T12:48:18.323Z,16.70
2019-03-06T12:50:54.019Z,17.30
2019-03-06T12:53:17.094Z,17.40
2019-03-06T12:55:45.771Z,17.10
2019-03-06T12:58:14.323Z,17.20
2019-03-06T13:00:42.922Z,17.80
2019-03-06T13:03:11.541Z,18.40
2019-03-06T13:05:40.120Z,18.00
2019-03-06T13:08:19.212Z,17.30
2019-03-06T13:10:38.964Z,16.90
2019-03-06T13:13:07.650Z,16.90
2019-03-06T13:15:36.225Z,16.80
2019-03-06T13:18:04.925Z,17.10
2019-03-06T13:20:33.562Z,17.80
2019-03-06T13:23:03.998Z,17.70
2019-03-06T13:25:32.402Z,17.60
2019-03-06T13:28:00.945Z,17.80
2019-03-06T13:30:29.862Z,17.80
2019-03-06T13:33:09.037Z,17.60
2019-03-06T13:35:39.321Z,17.50
2019-03-06T13:38:07.860Z,16.90
2019-03-06T13:40:36.430Z,16.90
2019-03-06T13:43:05.416Z,17.10
2019-03-06T13:45:34.133Z,17.40
2019-03-06T13:48:02.673Z,17.40
2019-03-06T13:50:31.257Z,17.50
2019-03-06T13:52:59.793Z,18.30
2019-03-06T13:55:28.437Z,18.40
2019-03-06T13:57:57.629Z,18.90
2019-03-06T14:00:26.416Z,18.60
2019-03-06T14:02:55.031Z,18.70
2019-03-06T14:05:23.944Z,18.50
2019-03-06T14:07:56.519Z,17.90
2019-03-06T14:10:26.547Z,17.50
2019-03-06T14:12:55.436Z,17.10
2019-03-06T14:15:24.255Z,16.40
2019-03-06T14:17:52.939Z,15.90
2019-03-06T14:20:23.213Z,15.90
2019-03-06T14:22:52.105Z,15.80
2019-03-06T14:25:21.759Z,15.70
2019-03-06T14:27:50.469Z,15.60
2019-03-06T14:30:22.085Z,15.50
2019-03-06T14:32:51.099Z,15.40
2019-03-06T14:35:19.806Z,15.30
2019-03-06T14:37:48.456Z,15.30
2019-03-06T14:40:22.711Z,15.20
2019-03-06T14:42:51.422Z,15.10
2019-03-06T14:45:20.035Z,15.20
2019-03-06T14:47:48.803Z,15.10
2019-03-06T14:50:17.423Z,15.10
2019-03-06T14:52:46.135Z,15.30
2019-03-06T14:55:15.330Z,15.20
2019-03-06T14:57:43.982Z,15.10
2019-03-06T15:00:18.037Z,15.00
2019-03-06T15:02:46.883Z,14.90
2019-03-06T15:05:16.174Z,15.00
2019-03-06T15:07:44.781Z,15.00
2019-03-06T15:10:18.383Z,14.80
2019-03-06T15:12:47.208Z,14.70
2019-03-06T15:15:20.679Z,14.70
2019-03-06T15:17:49.397Z,14.50
2019-03-06T15:20:28.350Z,14.40
2019-03-06T15:22:57.960Z,14.40
2019-03-06T15:25:27.837Z,14.40
2019-03-06T15:27:56.494Z,14.20
2019-03-06T15:30:25.182Z,14.20
2019-03-06T15:32:53.830Z,14.10
2019-03-06T15:35:22.722Z,14.10
2019-03-06T15:37:51.310Z,13.90
2019-03-06T15:40:30.003Z,13.90
2019-03-06T15:42:58.714Z,13.80
2019-03-06T15:45:29.045Z,13.80
2019-03-06T15:47:59.400Z,13.70
2019-03-06T15:50:28.345Z,13.70
2019-03-06T15:52:57.054Z,13.60
2019-03-06T15:55:29.603Z,13.50
2019-03-06T15:57:58.316Z,13.50
2019-03-06T16:00:35.288Z,13.40
2019-03-06T16:03:09.031Z,13.30
2019-03-06T16:05:37.817Z,13.20
2019-03-06T16:08:08.019Z,13.20
2019-03-06T16:10:36.639Z,13.10
2019-03-06T16:13:05.865Z,12.90
2019-03-06T16:15:34.766Z,12.80
2019-03-06T16:18:05.852Z,12.80
2019-03-06T16:20:34.722Z,12.70
2019-03-06T16:23:03.344Z,12.70
2019-03-06T16:25:36.762Z,12.50
2019-03-06T16:28:02.186Z,12.50
2019-03-06T16:30:31.271Z,12.50
2019-03-06T16:32:59.959Z,12.40
2019-03-06T16:35:28.675Z,12.40
2019-03-06T16:37:57.293Z,12.30
2019-03-06T16:40:26.507Z,12.30
2019-03-06T16:42:55.398Z,12.30
2019-03-06T16:45:25.387Z,12.20
2019-03-06T16:47:54.203Z,12.20
2019-03-06T16:50:23.322Z,12.30
2019-03-06T16:52:51.999Z,12.30
2019-03-06T16:55:22.025Z,12.20
2019-03-06T16:57:50.645Z,12.00
2019-03-06T17:00:28.202Z,12.00
2019-03-06T17:02:58.000Z,12.00
2019-03-06T17:05:26.818Z,11.90
2019-03-06T17:07:56.306Z,11.80
2019-03-06T17:10:28.699Z,11.70
2019-03-06T17:12:57.497Z,11.70
2019-03-06T17:15:27.386Z,11.70
2019-03-06T17:17:56.174Z,11.60
2019-03-06T17:20:34.810Z,11.60
2019-03-06T17:23:03.803Z,11.50
2019-03-06T17:25:32.817Z,11.50
2019-03-06T17:28:01.441Z,11.50
2019-03-06T17:30:32.415Z,11.40
2019-03-06T17:33:11.654Z,11.40
2019-03-06T17:35:40.452Z,11.30
2019-03-06T17:38:16.326Z,11.20
2019-03-06T17:40:45.809Z,11.20
2019-03-06T17:43:14.730Z,11.10
2019-03-06T17:45:44.149Z,11.10
2019-03-06T17:48:12.870Z,11.10
2019-03-06T17:50:41.516Z,11.00
2019-03-06T17:53:10.144Z,10.90
2019-03-06T17:55:38.786Z,10.90
2019-03-06T17:58:07.474Z,10.90
2019-03-06T18:00:40.995Z,10.70
2019-03-06T18:03:11.249Z,10.80
2019-03-06T18:05:39.967Z,10.70
2019-03-06T18:08:08.658Z,10.70
2019-03-06T18:10:37.478Z,10.70
2019-03-06T18:13:06.098Z,10.70
2019-03-06T18:15:34.786Z,10.70
2019-03-06T18:18:03.503Z,10.80
2019-03-06T18:20:32.051Z,10.80
2019-03-06T18:23:00.702Z,10.80
2019-03-06T18:25:29.253Z,10.80
2019-03-06T18:27:57.837Z,10.90
2019-03-06T18:30:26.641Z,11.00
2019-03-06T18:32:55.348Z,11.00
2019-03-06T18:35:23.972Z,11.00
2019-03-06T18:37:52.950Z,11.10
2019-03-06T18:40:22.842Z,11.10
2019-03-06T18:42:51.554Z,11.20
2019-03-06T18:45:21.052Z,11.20
2019-03-06T18:47:49.761Z,11.20
2019-03-06T18:50:23.147Z,11.30
2019-03-06T18:52:52.170Z,11.40
2019-03-06T18:55:21.258Z,11.40
2019-03-06T18:57:49.957Z,11.40
2019-03-06T19:00:29.046Z,11.40
2019-03-06T19:02:57.685Z,11.40
2019-03-06T19:05:26.296Z,11.30
2019-03-06T19:07:55.016Z,11.20
2019-03-06T19:10:24.825Z,11.10
2019-03-06T19:12:53.680Z,11.00
2019-03-06T19:15:24.426Z,11.10
2019-03-06T19:17:53.137Z,11.10
2019-03-06T19:20:22.532Z,11.20
2019-03-06T19:22:54.389Z,11.20
2019-03-06T19:25:23.241Z,11.20
2019-03-06T19:27:51.818Z,11.20
2019-03-06T19:30:24.392Z,11.20
2019-03-06T19:32:53.292Z,11.20
2019-03-06T19:35:23.381Z,11.10
2019-03-06T19:37:52.157Z,11.00
2019-03-06T19:40:20.873Z,11.00
2019-03-06T19:42:49.561Z,10.80
2019-03-06T19:45:25.008Z,10.70
2019-03-06T19:47:53.581Z,10.60
2019-03-06T19:50:25.668Z,10.40
2019-03-06T19:52:54.473Z,10.30
2019-03-06T19:55:23.323Z,10.20
2019-03-06T19:58:05.615Z,10.20
2019-03-06T20:00:34.414Z,10.10
2019-03-06T20:03:03.309Z,10.10
2019-03-06T20:05:34.657Z,10.10
2019-03-06T20:08:07.020Z,10.10
2019-03-06T20:10:35.669Z,10.20
2019-03-06T20:13:04.742Z,10.30
2019-03-06T20:15:33.399Z,10.40
2019-03-06T20:18:02.021Z,10.50
2019-03-06T20:20:30.672Z,10.80
2019-03-06T20:22:59.424Z,10.90
2019-03-06T20:25:28.315Z,10.90
2019-03-06T20:27:57.027Z,11.00
2019-03-06T20:30:26.646Z,11.00
2019-03-06T20:32:57.151Z,10.90
2019-03-06T20:35:26.361Z,11.00
2019-03-06T20:37:55.395Z,10.80
2019-03-06T20:40:24.017Z,10.80
2019-03-06T20:42:52.650Z,10.90
2019-03-06T20:45:21.370Z,10.90
2019-03-06T20:47:49.934Z,10.80
2019-03-06T20:50:19.642Z,10.70
2019-03-06T20:52:50.222Z,10.70
2019-03-06T20:55:18.798Z,10.60
2019-03-06T20:57:47.513Z,10.70
2019-03-06T21:00:24.587Z,10.80
2019-03-06T21:02:53.283Z,10.70
2019-03-06T21:05:21.921Z,10.60
2019-03-06T21:07:50.558Z,10.50
2019-03-06T21:10:19.885Z,10.50
2019-03-06T21:12:48.571Z,10.50
2019-03-06T21:15:18.581Z,10.40
2019-03-06T21:17:47.206Z,10.40
2019-03-06T21:20:18.090Z,10.30
2019-03-06T21:22:46.717Z,10.30
2019-03-06T21:25:17.106Z,10.20
2019-03-06T21:27:45.845Z,10.20
2019-03-06T21:30:20.727Z,10.10
2019-03-06T21:32:49.309Z,10.10
2019-03-06T21:35:17.873Z,10.00
2019-03-06T21:37:46.483Z,10.00
2019-03-06T21:40:15.276Z,9.90
2019-03-06T21:42:43.864Z,9.90
2019-03-06T21:45:13.574Z,9.90
2019-03-06T21:47:42.173Z,9.80
2019-03-06T21:50:15.603Z,9.80
2019-03-06T21:52:44.180Z,9.80
2019-03-06T21:55:14.493Z,9.80
2019-03-06T21:57:43.198Z,9.80
2019-03-06T22:00:23.057Z,9.70
2019-03-06T22:02:51.767Z,9.70
2019-03-06T22:05:20.393Z,9.70
2019-03-06T22:07:50.535Z,9.60
2019-03-06T22:10:19.301Z,9.50
2019-03-06T22:12:47.882Z,9.60
2019-03-06T22:15:18.742Z,9.50
2019-03-06T22:17:47.385Z,9.50
2019-03-06T22:20:16.379Z,9.50
2019-03-06T22:22:45.088Z,9.40
2019-03-06T22:25:15.077Z,9.40
2019-03-06T22:27:43.722Z,9.50
2019-03-06T22:30:24.442Z,9.50
2019-03-06T22:32:53.157Z,9.50
2019-03-06T22:35:21.695Z,9.60
2019-03-06T22:37:50.270Z,9.50
2019-03-06T22:40:20.057Z,9.50
2019-03-06T22:42:48.695Z,9.50
2019-03-06T22:45:19.546Z,9.40
2019-03-06T22:47:48.364Z,9.40
2019-03-06T22:50:17.947Z,9.40
2019-03-06T22:52:46.593Z,9.30
2019-03-06T22:55:17.365Z,9.30
2019-03-06T22:57:46.079Z,9.30
2019-03-06T23:00:29.395Z,9.20
2019-03-06T23:02:58.299Z,9.20
2019-03-06T23:05:28.895Z,9.10
2019-03-06T23:07:57.548Z,9.10
2019-03-06T23:10:26.102Z,9.20
2019-03-06T23:12:54.665Z,9.30
2019-03-06T23:15:23.210Z,9.30
2019-03-06T23:17:51.798Z,9.30
2019-03-06T23:20:20.354Z,9.40
2019-03-06T23:22:48.930Z,9.40
2019-03-06T23:25:18.350Z,9.40
2019-03-06T23:27:46.968Z,9.30
2019-03-06T23:30:16.445Z,9.40
2019-03-06T23:32:45.027Z,9.40
2019-03-06T23:35:13.663Z,9.40
2019-03-06T23:37:42.298Z,9.40
2019-03-06T23:40:11.583Z,9.40
2019-03-06T23:42:40.210Z,9.30
2019-03-06T23:45:10.622Z,9.40
2019-03-06T23:47:39.609Z,9.40
2019-03-06T23:50:10.590Z,9.40
2019-03-06T23:52:55.742Z,9.40
2019-03-06T23:55:24.535Z,9.40
2019-03-06T23:57:53.166Z,9.30
